Time;durP1;ratioP1;P1;durP2;ratioP2;P2;SDS_P1;SDS_P2;PMS_P1;PMS_P2;Temp;Humidity;BMP_temperature;BMP_pressure;BME280_temperature;BME280_humidity;BME280_pressure;Samples;Min_cycle;Max_cycle;Signal;HPM_P1;HPM_P2
2021/07/17 00:02:13;;;;;;;15.25;9.07;;;;;;;21.17;65.61;101090.25;5078303;28;20049;-81
2021/07/17 00:04:41;;;;;;;14.45;9.30;;;;;;;21.25;65.76;101092.03;5077143;28;20049;-80
2021/07/17 00:07:09;;;;;;;18.52;9.77;;;;;;;21.24;66.00;101090.41;5079487;28;20047;-81
2021/07/17 00:09:37;;;;;;;17.25;9.02;;;;;;;21.25;65.90;101083.53;5078383;28;20397;-79
2021/07/17 00:12:05;;;;;;;14.68;9.52;;;;;;;21.25;66.05;101083.53;5079238;28;20040;-81
2021/07/17 00:14:32;;;;;;;17.23;9.35;;;;;;;21.24;65.77;101082.72;5076331;28;20373;-81
2021/07/17 00:17:00;;;;;;;13.60;9.88;;;;;;;21.24;65.70;101091.22;5080631;28;20048;-79
2021/07/17 00:19:27;;;;;;;16.10;9.32;;;;;;;21.25;65.94;101086.34;5082675;28;20060;-80
2021/07/17 00:21:55;;;;;;;14.48;9.00;;;;;;;21.23;66.03;101083.91;5080902;28;20056;-80
2021/07/17 00:24:23;;;;;;;17.48;9.68;;;;;;;21.25;66.12;101092.88;5069027;28;20505;-80
2021/07/17 00:26:51;;;;;;;16.80;9.40;;;;;;;21.24;66.01;101084.72;5076610;28;20417;-80
2021/07/17 00:29:18;;;;;;;16.20;9.63;;;;;;;21.25;66.20;101080.69;5079053;28;20064;-80
2021/07/17 00:31:45;;;;;;;15.95;9.95;;;;;;;21.25;66.24;101089.19;5081643;28;20052;-80
2021/07/17 00:34:12;;;;;;;18.08;9.73;;;;;;;21.24;65.91;101085.53;5079304;28;20052;-79
2021/07/17 00:36:40;;;;;;;17.67;10.10;;;;;;;21.23;65.34;101077.41;5076869;28;20497;-80
2021/07/17 00:39:07;;;;;;;17.83;9.88;;;;;;;21.26;64.70;101080.31;5081613;28;20072;-80
2021/07/17 00:41:36;;;;;;;18.15;10.10;;;;;;;21.29;64.41;101087.25;5079439;28;20520;-81
2021/07/17 00:44:03;;;;;;;17.70;10.68;;;;;;;21.32;64.21;101080.84;5080443;28;20056;-80
2021/07/17 00:46:33;;;;;;;18.55;10.30;;;;;;;21.35;64.15;101087.78;5078726;28;20489;-80
2021/07/17 00:49:03;;;;;;;22.42;10.23;;;;;;;21.32;64.15;101092.19;5082550;28;20040;-80
2021/07/17 00:51:31;;;;;;;17.17;9.40;;;;;;;21.30;64.26;101077.56;5078604;28;20055;-80
2021/07/17 00:54:02;;;;;;;18.77;9.23;;;;;;;21.32;64.19;101080.84;5074401;28;20136;-80
2021/07/17 00:56:30;;;;;;;17.55;9.75;;;;;;;21.33;64.19;101082.47;5077359;28;20506;-80
2021/07/17 00:59:03;;;;;;;18.02;9.80;;;;;;;21.36;64.36;101080.94;5076567;28;20055;-80
2021/07/17 01:01:33;;;;;;;19.48;10.02;;;;;;;21.29;64.58;101076.75;5079301;28;20520;-80
2021/07/17 01:04:01;;;;;;;20.92;9.70;;;;;;;21.31;64.68;101084.88;5078042;28;20044;-80
2021/07/17 01:06:28;;;;;;;21.10;10.38;;;;;;;21.31;64.66;101082.03;5076714;28;20044;-80
2021/07/17 01:08:56;;;;;;;20.08;9.70;;;;;;;21.35;64.46;101082.13;5079795;28;20063;-80
2021/07/17 01:11:23;;;;;;;21.27;10.48;;;;;;;21.34;64.76;101086.16;5076044;28;20059;-79
2021/07/17 01:13:50;;;;;;;21.00;10.68;;;;;;;21.35;64.83;101084.94;5078534;28;20048;-80
2021/07/17 01:16:19;;;;;;;21.35;9.98;;;;;;;21.32;65.18;101091.38;5076625;28;20465;-79
2021/07/17 01:18:47;;;;;;;21.38;9.82;;;;;;;21.31;65.03;101086.88;5080205;28;20055;-80
2021/07/17 01:21:19;;;;;;;22.50;10.23;;;;;;;21.32;65.21;101080.84;5080448;28;20056;-80
2021/07/17 01:23:47;;;;;;;18.85;9.82;;;;;;;21.33;64.71;101082.47;5076478;28;20425;-80
2021/07/17 01:26:17;;;;;;;21.73;10.15;;;;;;;21.35;64.81;101091.44;5079052;28;20051;-80
2021/07/17 01:28:48;;;;;;;22.63;10.73;;;;;;;21.32;65.19;101097.03;5075715;28;20055;-79
2021/07/17 01:31:15;;;;;;;17.23;10.43;;;;;;;21.29;65.12;101099.44;5094285;28;20063;-79
2021/07/17 01:33:43;;;;;;;17.73;10.32;;;;;;;21.25;65.55;101098.53;5097287;28;20052;-80
2021/07/17 01:36:10;;;;;;;18.25;10.35;;;;;;;21.24;65.71;101098.91;5097404;28;20051;-80
2021/07/17 01:38:39;;;;;;;19.73;11.15;;;;;;;21.23;65.94;101091.56;5095731;28;20055;-80
2021/07/17 01:41:09;;;;;;;23.15;10.70;;;;;;;21.23;65.80;101088.72;5093900;28;20052;-80
2021/07/17 01:43:36;;;;;;;21.15;10.00;;;;;;;21.25;66.03;101087.19;5099400;28;20056;-81
2021/07/17 01:46:04;;;;;;;23.35;10.85;;;;;;;21.27;65.93;101083.97;5097126;28;20063;-80
2021/07/17 01:48:32;;;;;;;21.92;10.38;;;;;;;21.26;65.92;101079.50;5097344;28;20059;-81
2021/07/17 01:50:59;;;;;;;20.00;10.52;;;;;;;21.29;65.71;101084.41;5099927;28;20055;-80
2021/07/17 01:53:26;;;;;;;24.25;11.40;;;;;;;21.25;65.76;101087.19;5095506;28;20055;-81
2021/07/17 01:55:55;;;;;;;20.60;11.70;;;;;;;21.23;65.54;101085.91;5097932;28;20052;-80
2021/07/17 01:58:22;;;;;;;22.75;11.32;;;;;;;21.15;65.78;101086.97;5098749;28;20393;-80
2021/07/17 02:00:50;;;;;;;25.17;13.68;;;;;;;21.22;65.20;101085.09;5097780;28;20067;-81
2021/07/17 02:03:17;;;;;;;22.23;11.60;;;;;;;21.19;65.13;101083.03;5100514;28;20066;-79
2021/07/17 02:05:45;;;;;;;20.25;11.63;;;;;;;21.16;64.57;101080.09;5095153;28;20055;-80
2021/07/17 02:08:13;;;;;;;24.52;11.70;;;;;;;21.04;65.12;101073.41;5096947;28;20040;-79
2021/07/17 02:10:40;;;;;;;26.95;11.82;;;;;;;21.05;64.36;101071.38;5098052;28;20062;-80
2021/07/17 02:13:11;;;;;;;25.17;11.27;;;;;;;20.89;64.67;101085.56;5096280;28;20047;-80
2021/07/17 02:15:43;;;;;;;21.77;11.30;;;;;;;20.92;64.21;101079.19;5097227;28;20059;-80
2021/07/17 02:18:12;;;;;;;22.70;11.02;;;;;;;20.76;64.79;101089.72;5103923;28;20043;-80
2021/07/17 02:20:40;;;;;;;22.67;11.38;;;;;;;20.81;64.53;101086.59;5097740;28;20551;-80
2021/07/17 02:23:07;;;;;;;19.92;10.50;;;;;;;20.81;64.37;101086.59;5099443;28;20047;-80
2021/07/17 02:25:34;;;;;;;24.85;11.75;;;;;;;20.80;64.63;101082.16;5100657;28;20048;-80
2021/07/17 02:28:02;;;;;;;26.33;11.57;;;;;;;20.83;64.32;101082.25;5100174;28;20052;-81
2021/07/17 02:30:31;;;;;;;20.58;11.38;;;;;;;20.75;64.50;101071.13;5095617;28;20496;-80
2021/07/17 02:32:58;;;;;;;22.63;10.38;;;;;;;20.74;64.51;101077.97;5096323;28;20044;-80
2021/07/17 02:35:25;;;;;;;20.15;10.52;;;;;;;20.71;64.39;101088.03;5096538;28;20699;-80
2021/07/17 02:37:53;;;;;;;28.58;12.15;;;;;;;20.74;64.67;101080.78;5097038;28;20060;-81
2021/07/17 02:40:20;;;;;;;25.42;10.57;;;;;;;20.77;64.28;101083.72;5102791;28;20067;-80
2021/07/17 02:42:48;;;;;;;21.90;10.23;;;;;;;20.77;64.32;101085.72;5099619;28;20047;-79
2021/07/17 02:45:15;;;;;;;18.83;9.60;;;;;;;20.75;64.24;101083.25;5093144;28;20056;-81
2021/07/17 02:47:44;;;;;;;23.05;10.10;;;;;;;20.76;64.13;101082.06;5099089;28;20055;-80
2021/07/17 02:50:13;;;;;;;22.42;10.50;;;;;;;20.75;64.14;101088.09;5097095;28;20044;-80
2021/07/17 02:52:40;;;;;;;22.70;10.27;;;;;;;20.59;64.82;101093.78;5095234;28;20054;-80
2021/07/17 02:55:09;;;;;;;20.65;10.20;;;;;;;20.72;64.40;101091.66;5098372;28;20051;-81
2021/07/17 02:57:36;;;;;;;21.35;10.25;;;;;;;20.75;64.33;101105.09;5091136;28;20045;-80
2021/07/17 03:00:05;;;;;;;19.65;10.60;;;;;;;20.74;64.60;101095.75;5095411;28;20079;-80
2021/07/17 03:02:33;;;;;;;;;;;;;;;20.67;64.57;101087.09;5099695;28;20056;-80
2021/07/17 03:05:01;;;;;;;21.52;9.82;;;;;;;20.74;64.22;101092.94;5096185;28;20280;-80
2021/07/17 03:07:29;;;;;;;24.80;10.82;;;;;;;20.69;64.55;101090.41;5099466;28;20043;-81
2021/07/17 03:09:57;;;;;;;24.48;10.15;;;;;;;20.75;64.22;101096.59;5099961;28;20044;-80
2021/07/17 03:12:24;;;;;;;22.20;10.88;;;;;;;20.79;64.01;101086.16;5102133;28;20036;-80
2021/07/17 03:14:52;;;;;;;19.08;10.43;;;;;;;20.77;64.02;101088.56;5097755;28;20048;-80
2021/07/17 03:17:19;;;;;;;19.13;10.27;;;;;;;20.79;64.24;101089.81;5101010;28;20055;-80
2021/07/17 03:19:46;;;;;;;21.73;11.15;;;;;;;20.81;63.81;101080.94;5098755;28;20056;-80
2021/07/17 03:22:15;;;;;;;20.65;10.45;;;;;;;20.82;63.95;101086.25;5094363;28;20059;-80
2021/07/17 03:24:42;;;;;;;20.05;10.45;;;;;;;20.82;63.95;101076.94;5095294;28;20149;-79
2021/07/17 03:27:10;;;;;;;22.77;11.00;;;;;;;20.81;63.95;101078.94;5097915;28;20044;-80
2021/07/17 03:29:37;;;;;;;24.67;10.85;;;;;;;20.77;64.33;101080.06;5098276;28;20051;-81
2021/07/17 03:32:05;;;;;;;23.67;11.13;;;;;;;20.75;64.59;101069.09;5092906;28;20060;-80
2021/07/17 03:34:34;;;;;;;21.33;10.07;;;;;;;20.78;64.55;101078.88;5093456;28;20054;-81
2021/07/17 03:37:04;;;;;;;18.83;10.77;;;;;;;20.81;63.96;101067.63;5096759;28;20056;-80
2021/07/17 03:39:33;;;;;;;18.05;10.48;;;;;;;20.80;63.70;101068.00;5100211;28;20055;-81
2021/07/17 03:42:00;;;;;;;23.73;10.30;;;;;;;20.75;63.58;101073.94;5098539;28;20040;-80
2021/07/17 03:44:29;;;;;;;18.15;10.55;;;;;;;20.78;62.31;101073.19;5098580;28;20055;-80
2021/07/17 03:46:57;;;;;;;18.55;9.88;;;;;;;20.69;63.00;101079.06;5094955;28;20044;-80
2021/07/17 03:49:24;;;;;;;17.55;9.88;;;;;;;20.73;62.92;101076.34;5096696;28;20047;-80
2021/07/17 03:51:51;;;;;;;19.30;9.40;;;;;;;20.71;63.18;101073.06;5097971;28;20055;-81
2021/07/17 03:54:19;;;;;;;18.55;9.60;;;;;;;20.73;63.05;101076.34;5097281;28;20048;-81
2021/07/17 03:56:47;;;;;;;16.63;9.13;;;;;;;20.70;63.25;101082.72;5098656;28;21006;-81
2021/07/17 03:59:15;;;;;;;16.15;8.95;;;;;;;20.69;63.01;101079.06;5098796;28;20051;-80
2021/07/17 04:01:42;;;;;;;17.85;9.93;;;;;;;20.73;63.16;101076.34;5099796;28;20058;-80
2021/07/17 04:04:12;;;;;;;19.88;8.98;;;;;;;20.68;63.18;101068.91;5097485;28;20416;-79
2021/07/17 04:06:40;;;;;;;18.92;9.13;;;;;;;20.73;63.04;101082.00;5098320;28;20060;-81
2021/07/17 04:09:08;;;;;;;13.38;8.27;;;;;;;20.79;62.54;101083.31;5099258;28;20059;-81
2021/07/17 04:11:35;;;;;;;22.38;9.48;;;;;;;20.72;62.56;101074.69;5104005;28;20056;-80
2021/07/17 04:14:06;;;;;;;17.00;9.13;;;;;;;20.78;62.97;101070.38;5105946;28;20059;-81
2021/07/17 04:16:34;;;;;;;18.88;9.27;;;;;;;20.81;62.75;101078.09;5100639;28;20052;-80
2021/07/17 04:19:01;;;;;;;15.85;8.88;;;;;;;20.77;62.97;101086.53;5102314;28;20055;-80
2021/07/17 04:21:28;;;;;;;19.88;10.05;;;;;;;20.82;62.65;101080.56;5101138;28;20439;-80
2021/07/17 04:23:56;;;;;;;16.60;9.73;;;;;;;20.83;62.46;101084.22;5092219;28;20044;-79
2021/07/17 04:26:23;;;;;;;19.23;9.75;;;;;;;20.85;62.48;101094.00;5078376;28;20075;-81
2021/07/17 04:28:50;;;;;;;20.38;11.02;;;;;;;20.92;62.11;101079.19;5081285;28;20055;-80
2021/07/17 04:31:22;;;;;;;18.83;10.88;;;;;;;20.96;62.02;101082.13;5073684;28;20060;-80
2021/07/17 04:33:50;;;;;;;18.33;10.43;;;;;;;20.97;62.00;101087.38;5079932;28;20072;-80
2021/07/17 04:36:17;;;;;;;17.15;10.77;;;;;;;21.02;61.76;101089.09;5041184;28;20060;-79
2021/07/17 04:38:44;;;;;;;17.23;10.02;;;;;;;21.05;61.98;101085.53;5073811;28;20052;-80
2021/07/17 04:41:12;;;;;;;19.92;10.90;;;;;;;21.07;61.85;101098.13;5081833;28;20056;-80
2021/07/17 04:43:39;;;;;;;17.33;9.82;;;;;;;21.13;61.66;101095.03;5085947;28;20056;-80
2021/07/17 04:46:07;;;;;;;17.10;9.63;;;;;;;21.16;61.61;101094.25;5081700;28;20063;-80
2021/07/17 04:48:37;;;;;;;20.97;10.50;;;;;;;21.17;61.77;101093.09;5081674;28;20056;-80
2021/07/17 04:51:04;;;;;;;;;;;;;;;21.21;61.69;101086.31;5072711;28;20053;-80
2021/07/17 04:53:32;;;;;;;21.02;10.00;;;;;;;21.19;61.50;101082.19;5080871;28;19920;-80
2021/07/17 04:55:59;;;;;;;18.02;10.02;;;;;;;21.17;62.07;101084.59;5082025;28;20044;-80
2021/07/17 04:58:26;;;;;;;19.65;10.07;;;;;;;21.20;61.82;101086.66;5082112;28;20063;-80
2021/07/17 05:00:54;;;;;;;16.67;9.70;;;;;;;21.12;62.37;101084.88;5081738;28;20056;-79
2021/07/17 05:03:21;;;;;;;17.48;10.18;;;;;;;21.17;62.11;101085.41;5082219;28;20051;-79
2021/07/17 05:05:50;;;;;;;19.13;9.82;;;;;;;21.16;62.24;101085.75;5080485;28;20055;-81
2021/07/17 05:08:17;;;;;;;;;;;;;;;21.18;62.36;101089.03;5080652;28;20053;-79
2021/07/17 05:10:45;;;;;;;20.38;10.32;;;;;;;21.22;62.27;101085.09;5080481;28;19928;-79
2021/07/17 05:13:13;;;;;;;18.02;10.00;;;;;;;21.26;62.04;101088.00;5072151;28;20053;-80
2021/07/17 05:15:40;;;;;;;14.35;9.32;;;;;;;21.29;61.86;101081.59;5071502;28;20048;-80
2021/07/17 05:18:11;;;;;;;19.10;9.57;;;;;;;21.26;61.95;101073.84;5079752;28;20052;-79
2021/07/17 05:20:38;;;;;;;15.63;9.20;;;;;;;21.32;61.38;101080.84;5078967;28;20053;-80
2021/07/17 05:23:07;;;;;;;18.38;10.38;;;;;;;21.35;60.70;101077.25;5079502;28;20052;-81
2021/07/17 05:25:35;;;;;;;19.30;10.63;;;;;;;21.31;60.56;101079.19;5079467;28;20057;-79
2021/07/17 05:28:02;;;;;;;16.58;9.48;;;;;;;21.34;60.38;101078.47;5079997;28;20055;-81
2021/07/17 05:30:29;;;;;;;14.90;9.23;;;;;;;21.32;60.79;101080.84;5079085;28;20481;-80
2021/07/17 05:32:57;;;;;;;16.08;9.65;;;;;;;21.45;60.20;101081.53;5078378;28;20053;-81
2021/07/17 05:35:27;;;;;;;17.35;9.85;;;;;;;21.55;60.18;101082.97;5079237;28;20056;-80
2021/07/17 05:37:55;;;;;;;16.80;8.77;;;;;;;21.63;59.81;101077.06;5078842;28;20059;-81
2021/07/17 05:40:24;;;;;;;16.77;9.85;;;;;;;21.67;59.66;101080.78;5062811;28;20059;-80
2021/07/17 05:42:52;;;;;;;19.92;10.73;;;;;;;21.71;59.76;101080.81;5078694;28;20059;-79
2021/07/17 05:45:19;;;;;;;17.17;9.88;;;;;;;21.75;59.78;101078.06;5079531;28;20056;-80
2021/07/17 05:47:46;;;;;;;14.95;9.48;;;;;;;21.73;59.77;101083.28;5079493;28;20059;-79
2021/07/17 05:50:14;;;;;;;18.38;10.52;;;;;;;21.72;60.08;101084.50;5079486;28;20052;-79
2021/07/17 05:52:41;;;;;;;19.25;10.27;;;;;;;21.75;59.97;101080.91;5079312;28;20052;-81
2021/07/17 05:55:10;;;;;;;18.42;9.95;;;;;;;21.75;60.37;101087.38;5079034;28;20052;-81
2021/07/17 05:57:38;;;;;;;15.60;10.40;;;;;;;21.81;60.43;101085.06;5062359;28;20076;-81
2021/07/17 06:00:08;;;;;;;16.55;9.70;;;;;;;21.87;60.25;101092.06;5059849;28;20045;-80
2021/07/17 06:02:35;;;;;;;15.52;8.93;;;;;;;21.86;60.52;101094.09;5060846;28;20445;-79
2021/07/17 06:05:03;;;;;;;18.10;9.95;;;;;;;21.98;59.99;101095.09;5060197;28;20057;-79
2021/07/17 06:07:30;;;;;;;20.90;10.65;;;;;;;22.03;60.15;101103.31;5060323;28;20057;-80
2021/07/17 06:09:58;;;;;;;19.98;11.23;;;;;;;22.05;60.19;101098.09;5072870;28;20053;-80
2021/07/17 06:12:25;;;;;;;20.20;11.32;;;;;;;22.09;59.73;101096.94;5080021;28;20064;-81
2021/07/17 06:14:54;;;;;;;19.17;10.57;;;;;;;22.08;59.45;101094.47;5080120;28;20068;-80
2021/07/17 06:17:21;;;;;;;15.27;9.45;;;;;;;22.14;58.52;101092.97;5079424;28;20721;-80
2021/07/17 06:19:49;;;;;;;17.10;9.18;;;;;;;22.05;59.01;101090.38;5079222;28;20059;-80
2021/07/17 06:22:17;;;;;;;17.30;9.73;;;;;;;22.18;58.91;101093.03;5079901;28;20363;-81
2021/07/17 06:24:44;;;;;;;18.13;10.40;;;;;;;22.18;58.18;101105.19;5080687;28;20481;-80
2021/07/17 06:27:11;;;;;;;17.30;10.48;;;;;;;22.15;58.66;101105.94;5080874;28;20052;-81
2021/07/17 06:29:39;;;;;;;26.55;11.80;;;;;;;22.14;58.65;101107.16;5080831;28;20064;-80
2021/07/17 06:32:10;;;;;;;20.25;10.70;;;;;;;22.19;58.48;101109.66;5082434;28;20049;-81
2021/07/17 06:34:38;;;;;;;20.50;11.00;;;;;;;22.01;59.29;101106.53;5081177;28;20404;-81
2021/07/17 06:37:08;;;;;;;21.88;11.55;;;;;;;22.05;59.24;101107.41;5083136;28;20053;-81
2021/07/17 06:39:35;;;;;;;19.77;12.32;;;;;;;21.94;59.73;101119.75;5082430;28;20421;-80
2021/07/17 06:42:03;;;;;;;21.98;11.65;;;;;;;21.95;59.69;101118.56;5080705;28;20052;-80
2021/07/17 06:44:31;;;;;;;20.73;11.38;;;;;;;22.00;59.87;101130.41;5079827;28;20044;-79
2021/07/17 06:46:58;;;;;;;21.77;12.00;;;;;;;22.01;59.59;101129.22;5078749;28;20048;-79
2021/07/17 06:49:27;;;;;;;21.90;12.13;;;;;;;22.03;59.78;101131.69;5078871;28;20049;-79
2021/07/17 06:51:55;;;;;;;21.80;11.18;;;;;;;22.14;59.04;101131.88;5079739;28;20478;-79
2021/07/17 06:54:22;;;;;;;24.10;10.80;;;;;;;22.03;59.40;101140.19;5078999;28;20085;-81
2021/07/17 06:56:49;;;;;;;20.50;10.65;;;;;;;22.01;59.03;101139.75;5080269;28;20064;-80
2021/07/17 06:59:17;;;;;;;17.77;10.55;;;;;;;22.08;58.62;101134.19;5080509;28;20110;-81
2021/07/17 07:01:44;;;;;;;18.35;9.65;;;;;;;22.12;58.36;101137.13;5080575;28;20060;-80
2021/07/17 07:04:11;;;;;;;19.77;10.43;;;;;;;22.14;58.83;101146.06;5079885;28;20056;-80
2021/07/17 07:06:41;;;;;;;16.45;9.65;;;;;;;22.21;58.83;101141.31;5077628;28;20044;-80
2021/07/17 07:09:08;;;;;;;16.38;10.52;;;;;;;22.27;58.59;101150.38;5079360;28;20048;-81
2021/07/17 07:11:39;;;;;;;19.70;10.27;;;;;;;22.26;59.35;101152.41;5079702;28;20052;-81
2021/07/17 07:14:07;;;;;;;22.13;11.10;;;;;;;22.32;58.79;101150.06;5080899;28;20367;-80
2021/07/17 07:16:34;;;;;;;20.70;10.63;;;;;;;22.31;58.41;101139.09;5080925;28;20059;-81
2021/07/17 07:19:02;;;;;;;18.95;10.40;;;;;;;22.46;58.14;101149.50;5080282;28;20064;-80
2021/07/17 07:21:29;;;;;;;19.02;10.32;;;;;;;22.48;57.88;101153.59;5079894;28;20053;-80
2021/07/17 07:23:58;;;;;;;19.75;11.68;;;;;;;22.52;57.76;101147.16;5079068;28;20053;-80
2021/07/17 07:26:25;;;;;;;22.13;12.50;;;;;;;22.45;57.97;101147.88;5079125;28;20056;-80
2021/07/17 07:28:56;;;;;;;24.33;12.00;;;;;;;22.51;58.33;101154.88;5079059;28;20049;-80
2021/07/17 07:31:24;;;;;;;21.55;12.68;;;;;;;22.67;57.48;101144.16;5079563;28;20048;-80
2021/07/17 07:33:54;;;;;;;19.35;10.95;;;;;;;22.72;57.67;101153.56;5077066;28;20053;-86
2021/07/17 07:36:22;;;;;;;19.02;10.65;;;;;;;22.82;57.42;101155.75;5076430;28;20060;-80
2021/07/17 07:38:49;;;;;;;23.45;11.45;;;;;;;22.95;56.86;101160.03;5078052;28;20053;-81
2021/07/17 07:41:21;;;;;;;21.83;11.05;;;;;;;23.02;56.87;101163.00;5076968;28;20068;-82
2021/07/17 07:43:48;;;;;;;18.65;10.10;;;;;;;22.85;57.12;101160.69;5056837;28;20418;-81
2021/07/17 07:46:16;;;;;;;22.67;10.98;;;;;;;22.96;57.18;101158.81;5061464;28;20052;-81
2021/07/17 07:48:44;;;;;;;17.92;10.27;;;;;;;22.98;56.92;101167.78;5079901;28;20482;-80
2021/07/17 07:51:12;;;;;;;21.05;10.68;;;;;;;22.97;57.07;101168.16;5081063;28;20048;-81
2021/07/17 07:53:39;;;;;;;20.17;10.57;;;;;;;22.90;57.23;101166.03;5080169;28;20111;-80
2021/07/17 07:56:07;;;;;;;19.58;9.75;;;;;;;22.86;58.06;101165.97;5082983;28;20067;-81
2021/07/17 07:58:36;;;;;;;20.00;11.02;;;;;;;22.91;57.54;101176.22;5086143;28;20060;-81
2021/07/17 08:01:04;;;;;;;23.20;10.73;;;;;;;22.86;57.89;101174.47;5086556;28;20044;-82
2021/07/17 08:03:31;;;;;;;22.38;11.82;;;;;;;22.86;57.77;101171.66;5086385;28;20063;-82
2021/07/17 08:05:58;;;;;;;24.77;13.20;;;;;;;22.69;58.29;101175.84;5085828;28;20048;-81
2021/07/17 08:08:26;;;;;;;22.02;11.35;;;;;;;22.68;57.93;101181.94;5083300;28;20052;-82
2021/07/17 08:10:54;;;;;;;28.38;11.95;;;;;;;22.65;58.05;101174.97;5082018;28;20048;-81
2021/07/17 08:13:21;;;;;;;18.40;9.93;;;;;;;22.66;59.01;101165.25;5080467;28;20048;-80
2021/07/17 08:15:51;;;;;;;16.33;10.25;;;;;;;22.75;58.93;101178.38;5080042;28;20497;-81
2021/07/17 08:18:20;;;;;;;21.65;11.05;;;;;;;22.82;58.02;101173.59;5080180;28;20064;-82
2021/07/17 08:20:48;;;;;;;19.80;11.05;;;;;;;22.91;58.09;101170.53;5081011;28;20489;-82
2021/07/17 08:23:15;;;;;;;21.38;11.55;;;;;;;22.98;57.71;101173.47;5079125;28;20053;-81
2021/07/17 08:25:43;;;;;;;18.73;11.15;;;;;;;23.06;58.03;101178.09;5099215;28;20055;-80
2021/07/17 08:28:11;;;;;;;18.67;9.98;;;;;;;23.28;57.33;101175.53;5101817;28;20539;-83
2021/07/17 08:30:38;;;;;;;15.20;10.65;;;;;;;23.39;56.46;101185.06;5080166;28;20486;-83
2021/07/17 08:33:08;;;;;;;22.55;12.70;;;;;;;23.43;56.14;101185.09;5085475;28;20052;-81
2021/07/17 08:35:37;;;;;;;20.27;14.27;;;;;;;23.46;55.86;101179.47;5092576;28;20378;-81
2021/07/17 08:38:04;;;;;;;;;;;;;;;23.55;56.25;101186.88;5096818;28;20048;-81
2021/07/17 08:40:32;;;;;;;23.38;15.50;;;;;;;23.60;56.15;101187.38;5097040;28;19927;-81
2021/07/17 08:43:03;;;;;;;25.45;16.55;;;;;;;23.74;55.44;101186.72;5098305;28;20052;-81
2021/07/17 08:45:30;;;;;;;24.48;16.85;;;;;;;23.86;55.39;101191.38;5099913;28;20044;-81
2021/07/17 08:47:58;;;;;;;30.15;21.92;;;;;;;23.91;54.88;101182.47;5099694;28;20044;-80
2021/07/17 08:50:30;;;;;;;29.30;21.13;;;;;;;23.90;54.69;101181.66;5099052;28;20044;-80
2021/07/17 08:52:59;;;;;;;34.45;22.25;;;;;;;23.89;54.67;101187.72;5099629;28;20062;-80
2021/07/17 08:55:28;;;;;;;26.02;21.48;;;;;;;24.05;54.36;101187.53;5101191;28;20055;-81
2021/07/17 08:57:56;;;;;;;26.15;23.08;;;;;;;24.11;53.87;101185.97;5100530;28;20393;-82
2021/07/17 09:00:25;;;;;;;24.63;22.02;;;;;;;23.94;54.43;101189.41;5103229;28;20063;-83
2021/07/17 09:02:53;;;;;;;;;;;;;;;23.99;54.47;101177.69;5103544;28;20052;-83
2021/07/17 09:05:25;;;;;;;25.63;21.13;;;;;;;24.03;54.96;101187.09;5100908;28;19920;-82
2021/07/17 09:07:55;;;;;;;26.63;21.27;;;;;;;24.05;54.91;101187.53;5100276;28;20056;-82
2021/07/17 09:10:34;;;;;;;27.42;21.75;;;;;;;24.19;53.72;101186.84;5098844;28;20048;-80
2021/07/17 09:13:08;;;;;;;;;;;;;;;24.11;54.15;101183.13;5099388;28;20048;-86
2021/07/17 09:15:37;;;;;;;25.48;21.15;;;;;;;24.07;54.68;101185.09;5096207;28;19927;-76
2021/07/17 09:18:05;;;;;;;24.70;20.52;;;;;;;24.07;55.20;101187.94;5095504;28;20059;-75
2021/07/17 09:20:32;;;;;;;25.90;23.08;;;;;;;24.36;54.41;101185.38;5095053;28;20488;-75
2021/07/17 09:23:04;;;;;;;29.85;23.95;;;;;;;24.50;53.66;101186.34;5096229;28;20052;-76
2021/07/17 09:25:38;;;;;;;29.00;23.20;;;;;;;24.43;53.58;101182.63;5093846;28;20063;-75
2021/07/17 09:28:19;;;;;;;25.40;20.27;;;;;;;24.47;54.63;101189.97;5095364;28;20052;-75
2021/07/17 09:30:47;;;;;;;25.67;19.48;;;;;;;24.62;54.00;101173.84;5074565;28;20060;-75
2021/07/17 09:33:16;;;;;;;21.60;19.08;;;;;;;24.84;53.69;101174.03;5074946;28;20056;-75
2021/07/17 09:35:48;;;;;;;23.52;19.95;;;;;;;24.94;53.06;101176.13;5075077;28;20055;-75
2021/07/17 09:38:18;;;;;;;23.33;19.17;;;;;;;24.97;52.68;101181.06;5092152;28;20063;-75
2021/07/17 09:40:49;;;;;;;21.67;18.00;;;;;;;25.13;53.09;101177.88;5095327;28;20048;-75
2021/07/17 09:43:27;;;;;;;18.33;16.38;;;;;;;25.36;52.44;101180.50;5094900;28;20051;-75
2021/07/17 09:45:55;;;;;;;20.70;15.75;;;;;;;25.80;51.47;101170.09;5094685;28;20071;-75
2021/07/17 09:48:26;;;;;;;17.65;13.30;;;;;;;26.18;49.91;101165.75;5094135;28;20063;-75
2021/07/17 09:50:54;;;;;;;18.73;12.35;;;;;;;27.16;47.35;101153.09;5093051;28;20051;-75
2021/07/17 09:53:45;;;;;;;16.02;10.35;;;;;;;27.65;45.86;101159.88;5095025;28;20052;-76
2021/07/17 09:56:15;;;;;;;12.10;9.45;;;;;;;28.81;43.49;101157.09;5094689;28;20056;-76
2021/07/17 09:58:43;;;;;;;12.73;9.60;;;;;;;29.70;41.62;101159.00;5094410;28;20048;-76
2021/07/17 10:01:22;;;;;;;14.32;9.18;;;;;;;30.47;39.54;101157.50;5094606;28;20048;-76
2021/07/17 10:03:51;;;;;;;11.90;7.75;;;;;;;30.28;39.34;101155.31;5094187;28;20055;-75
2021/07/17 10:06:36;;;;;;;13.85;6.38;;;;;;;29.78;40.57;101154.00;5094309;28;20051;-76
2021/07/17 10:09:07;;;;;;;14.23;9.18;;;;;;;29.81;41.14;101152.31;5093502;28;20040;-75
2021/07/17 10:11:35;;;;;;;13.50;8.20;;;;;;;29.71;40.81;101151.22;5094465;28;20044;-75
2021/07/17 10:14:17;;;;;;;15.55;8.65;;;;;;;29.49;41.83;101151.47;5094163;28;20506;-75
2021/07/17 10:16:47;;;;;;;14.13;8.50;;;;;;;29.74;41.24;101156.91;5094323;28;20473;-75
2021/07/17 10:19:15;;;;;;;10.57;6.97;;;;;;;29.93;40.07;101149.66;5094169;28;20049;-76
2021/07/17 10:21:43;;;;;;;11.85;8.35;;;;;;;30.13;40.30;101143.22;5094208;28;20063;-76
2021/07/17 10:24:19;;;;;;;22.63;17.15;;;;;;;30.28;39.56;101150.41;5089337;28;20055;-81
2021/07/17 10:26:49;;;;;;;10.88;6.32;;;;;;;31.24;37.75;101135.56;5098273;28;20045;-81
2021/07/17 10:29:17;;;;;;;17.02;10.18;;;;;;;31.64;36.30;101140.53;5103137;28;20067;-81
2021/07/17 10:31:46;;;;;;;9.43;5.68;;;;;;;33.53;33.94;101139.88;5103436;28;20068;-81
2021/07/17 10:34:16;;;;;;;;;;;;;;;35.02;31.67;101138.38;5104959;28;20048;-81
2021/07/17 10:36:48;;;;;;;11.93;7.75;;;;;;;35.29;29.98;101131.22;5102644;28;19927;-82
2021/07/17 10:39:22;;;;;;;15.23;5.82;;;;;;;35.25;30.58;101124.75;5102995;28;20059;-82
2021/07/17 10:41:50;;;;;;;11.23;5.45;;;;;;;35.90;28.64;101138.38;5101410;28;20306;-82
2021/07/17 10:44:38;;;;;;;8.25;5.20;;;;;;;37.75;26.52;101133.69;5101950;28;20051;-82
2021/07/17 10:47:08;;;;;;;8.00;5.47;;;;;;;39.71;24.99;101129.81;5101895;28;20048;-82
2021/07/17 10:49:39;;;;;;;12.00;4.72;;;;;;;40.65;22.55;101127.31;5102015;28;20052;-82
2021/07/17 10:52:09;;;;;;;9.90;4.95;;;;;;;41.29;22.57;101126.28;5104566;28;20051;-82
2021/07/17 10:54:38;;;;;;;7.72;4.60;;;;;;;42.28;21.51;101126.13;5102527;28;20048;-82
2021/07/17 10:57:09;;;;;;;8.95;5.00;;;;;;;43.33;20.26;101117.56;5100950;28;20063;-83
2021/07/17 10:59:49;;;;;;;9.32;5.30;;;;;;;43.82;18.17;101119.50;5101921;28;20056;-83
2021/07/17 11:02:25;;;;;;;7.95;5.30;;;;;;;44.89;17.49;101122.25;5102669;28;20056;-83
2021/07/17 11:04:55;;;;;;;8.65;5.40;;;;;;;45.69;17.69;101126.31;5103957;28;20060;-81
2021/07/17 11:07:44;;;;;;;7.63;4.60;;;;;;;46.69;16.53;101122.91;5105209;28;20052;-81
2021/07/17 11:10:20;;;;;;;10.35;5.50;;;;;;;47.20;15.75;101113.41;5104106;28;20047;-81
2021/07/17 11:13:04;;;;;;;10.35;5.00;;;;;;;46.56;16.12;101112.63;5104947;28;20047;-81
2021/07/17 11:15:46;;;;;;;10.63;5.10;;;;;;;46.35;16.64;101111.50;5107281;28;20058;-81
2021/07/17 11:18:21;;;;;;;10.05;4.72;;;;;;;47.38;15.59;101106.69;5106677;28;20059;-81
2021/07/17 11:20:49;;;;;;;7.97;4.40;;;;;;;47.31;15.32;101104.38;5103882;28;20046;-82
2021/07/17 11:23:19;;;;;;;8.27;4.90;;;;;;;47.35;15.52;101098.97;5104571;28;20052;-82